createdAt,value
2022-08-19T00:01:30.810Z,95109.71
2022-08-19T00:04:03.178Z,95107.31
2022-08-19T00:06:33.248Z,95116.72
2022-08-19T00:09:03.857Z,95125.71
2022-08-19T00:11:32.570Z,95123.42
2022-08-19T00:14:04.667Z,95123.42
2022-08-19T00:16:34.942Z,95121.98
2022-08-19T00:19:05.420Z,95129.00
2022-08-19T00:21:34.396Z,95128.45
2022-08-19T00:24:10.512Z,95123.58
2022-08-19T00:26:41.745Z,95130.06
2022-08-19T00:29:15.300Z,95135.08
2022-08-19T00:31:45.327Z,95128.03
2022-08-19T00:34:16.127Z,95137.75
2022-08-19T00:36:45.459Z,95137.59
2022-08-19T00:39:16.492Z,95129.84
2022-08-19T00:41:50.514Z,95125.31
2022-08-19T00:44:26.642Z,95127.98
2022-08-19T00:46:58.845Z,95124.09
2022-08-19T00:49:37.246Z,95085.08
2022-08-19T00:52:12.209Z,95118.03
2022-08-19T00:54:42.803Z,95118.91
2022-08-19T00:57:14.598Z,95118.69
2022-08-19T00:59:58.779Z,95119.39
2022-08-19T01:02:24.693Z,95120.11
2022-08-19T01:04:55.281Z,95122.09
2022-08-19T01:07:24.596Z,95122.16
2022-08-19T01:12:52.626Z,95129.86
2022-08-19T01:15:28.907Z,95129.56
2022-08-19T01:17:59.799Z,95133.95
2022-08-19T01:20:30.323Z,95125.98
2022-08-19T01:23:17.637Z,95129.41
2022-08-19T01:25:57.504Z,95127.83
2022-08-19T01:28:34.109Z,95126.41
2022-08-19T01:31:08.188Z,95127.89
2022-08-19T01:33:36.550Z,95125.27
2022-08-19T01:36:11.820Z,95123.86
2022-08-19T01:38:49.054Z,95121.50
2022-08-19T01:41:19.107Z,95120.84
2022-08-19T01:44:13.698Z,95116.98
2022-08-19T01:46:25.056Z,95117.41
2022-08-19T01:48:53.748Z,95117.06
2022-08-19T01:51:23.951Z,95120.45
2022-08-19T01:53:53.967Z,95122.52
2022-08-19T01:56:22.697Z,95122.31
2022-08-19T01:59:00.166Z,95123.48
2022-08-19T02:01:30.409Z,95118.70
2022-08-19T02:04:03.860Z,95120.26
2022-08-19T02:06:32.579Z,95127.02
2022-08-19T02:09:01.897Z,95127.73
2022-08-19T02:11:34.461Z,95128.05
2022-08-19T02:14:08.992Z,95131.60
2022-08-19T02:16:39.367Z,95123.13
2022-08-19T02:19:17.128Z,95120.77
2022-08-19T02:21:46.388Z,95120.58
2022-08-19T02:24:15.196Z,95121.53
2022-08-19T02:26:43.921Z,95120.93
2022-08-19T02:29:12.713Z,95120.62
2022-08-19T02:31:41.497Z,95114.05
2022-08-19T02:34:11.420Z,95125.47
2022-08-19T02:36:42.522Z,95132.16
2022-08-19T02:39:11.439Z,95127.91
2022-08-19T02:41:40.227Z,95124.20
2022-08-19T02:44:30.136Z,95126.26
2022-08-19T02:46:41.229Z,95137.08
2022-08-19T02:49:13.139Z,95130.47
2022-08-19T02:51:46.567Z,95138.78
2022-08-19T02:54:19.607Z,95135.20
2022-08-19T02:56:48.374Z,95139.10
2022-08-19T02:59:17.079Z,95143.61
2022-08-19T03:01:48.564Z,95149.55
2022-08-19T03:04:18.269Z,95139.33
2022-08-19T03:06:48.876Z,95142.36
2022-08-19T03:09:19.400Z,95140.31
2022-08-19T03:11:48.626Z,95142.45
2022-08-19T03:14:19.188Z,95139.88
2022-08-19T03:16:51.002Z,95138.37
2022-08-19T03:19:22.385Z,95134.06
2022-08-19T03:21:52.014Z,95132.48
2022-08-19T03:24:21.629Z,95135.96
2022-08-19T03:26:53.637Z,95131.06
2022-08-19T03:29:30.100Z,95126.35
2022-08-19T03:31:55.621Z,95133.12
2022-08-19T03:34:30.807Z,95136.64
2022-08-19T03:37:01.684Z,95132.19
2022-08-19T03:39:30.433Z,95140.36
2022-08-19T03:42:33.187Z,95141.28
2022-08-19T03:44:33.323Z,95135.63
2022-08-19T03:47:05.566Z,95145.08
2022-08-19T03:49:36.939Z,95146.25
2022-08-19T03:52:07.919Z,95149.28
2022-08-19T03:54:41.075Z,95156.44
2022-08-19T03:57:17.094Z,95157.95
2022-08-19T03:59:48.482Z,95162.26
2022-08-19T04:02:17.037Z,95162.45
2022-08-19T04:04:46.315Z,95158.20
2022-08-19T04:07:26.375Z,95168.16
2022-08-19T04:09:54.821Z,95169.86
2022-08-19T04:12:23.953Z,95175.09
2022-08-19T04:14:55.670Z,95173.66
2022-08-19T04:17:30.518Z,95170.48
2022-08-19T04:19:59.727Z,95176.70
2022-08-19T04:22:34.179Z,95177.53
2022-08-19T04:25:03.164Z,95178.36
2022-08-19T04:27:33.948Z,95179.48
2022-08-19T04:30:03.086Z,95181.98
2022-08-19T04:32:38.053Z,95182.16
2022-08-19T04:35:17.416Z,95183.05
2022-08-19T04:37:43.908Z,95184.64
2022-08-19T04:40:32.859Z,95186.70
2022-08-19T04:43:02.405Z,95181.47
2022-08-19T04:45:39.612Z,95178.09
2022-08-19T04:48:27.425Z,95185.74
2022-08-19T04:50:34.545Z,95182.31
2022-08-19T04:53:04.591Z,95180.27
2022-08-19T04:55:38.205Z,95179.89
2022-08-19T04:58:05.973Z,95182.60
2022-08-19T05:00:35.221Z,95181.56
2022-08-19T05:03:05.072Z,95182.23
2022-08-19T05:05:45.372Z,95186.23
2022-08-19T05:08:12.712Z,95189.69
2022-08-19T05:10:43.315Z,95187.80
2022-08-19T05:13:13.525Z,95190.19
2022-08-19T05:15:42.688Z,95193.99
2022-08-19T05:18:29.809Z,95187.29
2022-08-19T05:21:16.944Z,95186.98
2022-08-19T05:23:46.171Z,95186.89
2022-08-19T05:26:15.803Z,95196.00
2022-08-19T05:28:44.432Z,95189.84
2022-08-19T05:31:15.496Z,95193.72
2022-08-19T05:33:47.800Z,95200.03
2022-08-19T05:36:16.962Z,95197.63
2022-08-19T05:39:08.434Z,95195.06
2022-08-19T05:41:31.802Z,95190.91
2022-08-19T05:44:02.447Z,95196.27
2022-08-19T05:46:31.986Z,95192.13
2022-08-19T05:49:02.096Z,95200.01
2022-08-19T05:51:33.230Z,95193.03
2022-08-19T05:54:04.246Z,95194.39
2022-08-19T05:56:34.031Z,95192.91
2022-08-19T05:59:02.705Z,95192.69
2022-08-19T06:01:31.422Z,95187.31
2022-08-19T06:04:02.042Z,95194.95
2022-08-19T06:06:31.080Z,95191.66
2022-08-19T06:09:01.298Z,95192.75
2022-08-19T06:11:44.502Z,95196.40
2022-08-19T06:14:18.149Z,95193.70
2022-08-19T06:16:52.283Z,95195.06
2022-08-19T06:19:26.577Z,95194.20
2022-08-19T06:21:55.321Z,95199.05
2022-08-19T06:24:28.437Z,95201.91
2022-08-19T06:27:01.646Z,95195.24
2022-08-19T06:29:31.985Z,95196.16
2022-08-19T06:32:03.582Z,95194.95
2022-08-19T06:34:35.076Z,95196.27
2022-08-19T06:37:05.508Z,95202.94
2022-08-19T06:39:37.960Z,95199.13
2022-08-19T06:45:34.750Z,95200.49
2022-08-19T06:48:00.568Z,95199.92
2022-08-19T06:50:39.695Z,95193.54
2022-08-19T06:55:56.746Z,95194.14
2022-08-19T06:58:28.781Z,95196.81
2022-08-19T07:01:13.869Z,95199.17
2022-08-19T07:03:46.534Z,95199.21
2022-08-19T07:06:44.460Z,95202.33
2022-08-19T07:12:20.672Z,95209.73
2022-08-19T07:27:06.778Z,95201.60
2022-08-19T07:29:38.798Z,95199.41
2022-08-19T07:32:11.563Z,95204.42
2022-08-19T07:34:42.324Z,95197.92
2022-08-19T07:37:12.057Z,95198.73
2022-08-19T07:39:44.198Z,95195.34
2022-08-19T07:42:14.225Z,95194.44
2022-08-19T07:44:50.115Z,95196.33
2022-08-19T07:47:50.025Z,95199.73
2022-08-19T07:49:46.367Z,95193.67
2022-08-19T07:52:15.401Z,95195.00
2022-08-19T07:54:44.691Z,95194.92
2022-08-19T07:57:13.654Z,95200.89
2022-08-19T07:59:42.299Z,95197.20
2022-08-19T08:02:15.969Z,95188.06
2022-08-19T08:08:00.546Z,95186.66
2022-08-19T08:10:31.429Z,95194.03
2022-08-19T08:13:19.008Z,95193.05
2022-08-19T08:15:49.535Z,95190.75
2022-08-19T08:18:27.902Z,95188.90
2022-08-19T08:23:41.891Z,95182.21
2022-08-19T08:26:10.946Z,95179.88
2022-08-19T08:28:55.904Z,95169.49
2022-08-19T08:31:29.603Z,95172.32
2022-08-19T08:34:00.196Z,95172.66
2022-08-19T08:36:34.041Z,95174.38
2022-08-19T08:39:12.275Z,95170.34
2022-08-19T08:41:50.615Z,95170.38
2022-08-19T08:44:45.638Z,95171.40
2022-08-19T08:47:21.781Z,95108.08
2022-08-19T08:50:02.535Z,95162.69
2022-08-19T08:52:50.567Z,95161.95
2022-08-19T08:55:26.196Z,95160.70
2022-08-19T08:58:32.036Z,95153.02
2022-08-19T09:01:05.689Z,95152.25
2022-08-19T09:03:39.112Z,95153.18
2022-08-19T09:06:36.381Z,95148.98
2022-08-19T09:09:28.891Z,95149.16
2022-08-19T09:12:07.146Z,95138.22
2022-08-19T09:14:52.431Z,95142.73
2022-08-19T09:17:26.175Z,95136.11
2022-08-19T09:20:00.318Z,95143.23
2022-08-19T09:22:37.129Z,95136.86
2022-08-19T09:25:08.826Z,95136.00
2022-08-19T09:27:43.392Z,95131.47
2022-08-19T09:30:13.134Z,95133.08
2022-08-19T09:32:44.557Z,95108.16
2022-08-19T09:35:14.308Z,95129.69
2022-08-19T09:37:45.564Z,95130.16
2022-08-19T09:40:14.595Z,95121.30
2022-08-19T09:42:50.296Z,95120.92
2022-08-19T09:45:37.425Z,95122.17
2022-08-19T09:47:58.057Z,95118.50
2022-08-19T09:50:27.408Z,95117.52
2022-08-19T09:52:57.507Z,95125.27
2022-08-19T09:55:31.455Z,95116.88
2022-08-19T09:57:58.039Z,95114.16
2022-08-19T10:00:27.789Z,95114.50
2022-08-19T10:03:01.030Z,95113.34
2022-08-19T10:05:48.474Z,95107.14
2022-08-19T10:08:50.225Z,95103.55
2022-08-19T10:10:52.276Z,95102.27
2022-08-19T10:16:20.200Z,95093.41
2022-08-19T10:18:58.713Z,95089.38
2022-08-19T10:21:28.050Z,95090.80
2022-08-19T10:24:01.072Z,95089.09
2022-08-19T10:26:32.752Z,95089.48
2022-08-19T10:29:04.160Z,95084.81
2022-08-19T10:32:01.275Z,95090.33
2022-08-19T10:34:30.110Z,95076.78
2022-08-19T10:37:02.079Z,95080.26
2022-08-19T10:39:42.424Z,95072.75
2022-08-19T10:42:08.466Z,95079.08
2022-08-19T10:44:44.698Z,95071.75
2022-08-19T10:47:21.897Z,95067.61
2022-08-19T10:50:12.433Z,95064.97
2022-08-19T10:53:11.740Z,95065.77
2022-08-19T10:58:56.343Z,95061.57
2022-08-19T11:02:04.492Z,95061.84
2022-08-19T11:04:35.782Z,95055.02
2022-08-19T11:07:13.529Z,95057.62
2022-08-19T11:12:35.607Z,95052.75
2022-08-19T11:15:04.565Z,95053.14
2022-08-19T11:17:33.341Z,95055.98
2022-08-19T11:20:05.476Z,95053.14
2022-08-19T11:22:46.663Z,95053.39
2022-08-19T11:28:27.336Z,95048.34
2022-08-19T11:30:51.309Z,95038.30
2022-08-19T11:33:27.001Z,95041.92
2022-08-19T11:35:55.796Z,95045.30
2022-08-19T11:38:57.782Z,95035.30
2022-08-19T11:42:04.200Z,95028.86
2022-08-19T11:44:38.484Z,95027.48
2022-08-19T11:47:12.266Z,95030.47
2022-08-19T11:49:41.484Z,95031.58
2022-08-19T11:52:11.828Z,95028.41
2022-08-19T11:54:40.684Z,95026.11
2022-08-19T11:57:16.775Z,95021.97
2022-08-19T11:59:54.298Z,95024.20
2022-08-19T12:02:53.158Z,95021.24
2022-08-19T12:05:10.218Z,95017.77
2022-08-19T12:07:39.606Z,95007.00
2022-08-19T12:10:10.615Z,95005.25
2022-08-19T12:12:43.794Z,95000.00
2022-08-19T12:15:15.167Z,94998.77
2022-08-19T12:17:44.587Z,94994.81
2022-08-19T12:20:18.431Z,94992.50
2022-08-19T12:22:47.199Z,94992.78
2022-08-19T12:25:20.443Z,94980.73
2022-08-19T12:27:57.320Z,94977.69
2022-08-19T12:30:21.917Z,94980.78
2022-08-19T12:32:58.628Z,94981.77
2022-08-19T12:35:27.777Z,94976.80
2022-08-19T12:37:57.338Z,94974.66
2022-08-19T12:40:26.796Z,94975.59
2022-08-19T12:42:56.294Z,94970.36
2022-08-19T12:45:25.693Z,94969.27
2022-08-19T12:47:56.420Z,94966.43
2022-08-19T12:50:31.819Z,94958.85
2022-08-19T12:53:04.663Z,94963.19
2022-08-19T12:55:38.090Z,94967.02
2022-08-19T12:58:36.420Z,94966.56
2022-08-19T13:01:14.649Z,94953.04
2022-08-19T13:03:51.827Z,94955.59
2022-08-19T13:06:20.615Z,94954.36
2022-08-19T13:08:52.004Z,94956.27
2022-08-19T13:11:26.822Z,94951.03
2022-08-19T13:13:56.584Z,94945.27
2022-08-19T13:16:29.242Z,94943.62
2022-08-19T13:19:02.528Z,94942.39
2022-08-19T13:24:39.056Z,94935.70
2022-08-19T13:27:08.061Z,94938.79
2022-08-19T13:30:02.529Z,94932.95
2022-08-19T13:32:46.173Z,94939.03
2022-08-19T13:35:18.742Z,94929.73
2022-08-19T13:37:49.090Z,94929.67
2022-08-19T13:40:24.920Z,94929.88
2022-08-19T13:42:57.711Z,94928.17
2022-08-19T13:45:28.327Z,94930.64
2022-08-19T13:47:59.870Z,94920.86
2022-08-19T13:50:32.504Z,94920.86
2022-08-19T13:53:05.730Z,94921.03
2022-08-19T13:55:34.751Z,94921.03
2022-08-19T13:58:07.163Z,94914.33
2022-08-19T14:03:39.245Z,94905.83
2022-08-19T14:06:28.803Z,94905.83
2022-08-19T14:08:53.842Z,94895.72
2022-08-19T14:11:26.590Z,94903.45
2022-08-19T14:13:55.635Z,94903.45
2022-08-19T14:19:23.561Z,94904.95
2022-08-19T14:21:54.298Z,94901.13
2022-08-19T14:24:25.021Z,94908.25
2022-08-19T14:26:54.008Z,94906.56
2022-08-19T14:29:23.094Z,94903.25
2022-08-19T14:31:53.750Z,94898.45
2022-08-19T14:34:26.018Z,94898.45
2022-08-19T14:36:55.708Z,94899.11
2022-08-19T14:39:32.009Z,94893.78
2022-08-19T14:42:11.263Z,94893.26
2022-08-19T14:44:44.938Z,94890.78
2022-08-19T14:47:36.874Z,94884.40
2022-08-19T14:53:19.344Z,94883.38
2022-08-19T14:55:53.892Z,94881.12
2022-08-19T14:58:43.602Z,94879.31
2022-08-19T15:01:06.017Z,94878.72
2022-08-19T15:03:51.152Z,94874.67
2022-08-19T15:06:35.288Z,94868.41
2022-08-19T15:09:07.269Z,94878.64
2022-08-19T15:11:40.567Z,94878.31
2022-08-19T15:14:12.799Z,94882.30
2022-08-19T15:16:43.134Z,94881.00
2022-08-19T15:19:12.868Z,94884.37
2022-08-19T15:21:42.198Z,94885.27
2022-08-19T15:24:10.920Z,94877.39
2022-08-19T15:26:39.649Z,94879.78
2022-08-19T15:29:08.329Z,94872.94
2022-08-19T15:31:38.910Z,94868.66
2022-08-19T15:34:10.060Z,94874.23
2022-08-19T15:36:54.414Z,94866.91
2022-08-19T15:39:23.308Z,94869.03
2022-08-19T15:41:57.237Z,94871.84
2022-08-19T15:44:28.662Z,94864.39
2022-08-19T15:46:57.901Z,94869.88
2022-08-19T15:49:27.071Z,94869.05
2022-08-19T15:52:09.880Z,94871.72
2022-08-19T15:58:34.553Z,94869.06
2022-08-19T16:01:40.428Z,94875.71
2022-08-19T16:10:47.002Z,94876.98
2022-08-19T16:19:28.329Z,94878.46
2022-08-19T16:22:01.095Z,94875.78
2022-08-19T16:24:35.092Z,94874.23
2022-08-19T16:27:06.842Z,94869.44
2022-08-19T16:29:39.134Z,94872.69
2022-08-19T16:32:10.318Z,94876.22
2022-08-19T16:34:42.515Z,94879.16
2022-08-19T16:37:11.663Z,94875.52
2022-08-19T16:39:44.364Z,94880.38
2022-08-19T16:45:05.066Z,94881.95
2022-08-19T16:47:33.823Z,94879.53
2022-08-19T16:50:05.232Z,94883.28
2022-08-19T16:52:35.006Z,94880.57
2022-08-19T16:55:22.621Z,94881.44
2022-08-19T16:57:54.686Z,94881.31
2022-08-19T17:00:23.737Z,94868.69
2022-08-19T17:02:54.270Z,94882.45
2022-08-19T17:05:23.294Z,94884.80
2022-08-19T17:07:53.411Z,94883.88
2022-08-19T17:10:22.784Z,94892.91
2022-08-19T17:12:57.423Z,94898.58
2022-08-19T17:15:26.122Z,94900.11
2022-08-19T17:18:14.368Z,94899.44
2022-08-19T17:20:44.007Z,94902.84
2022-08-19T17:23:15.800Z,94904.47
2022-08-19T17:25:44.221Z,94907.38
2022-08-19T17:28:25.556Z,94908.12
2022-08-19T17:31:07.840Z,94917.45
2022-08-19T17:33:48.103Z,94915.34
2022-08-19T17:36:10.702Z,94916.44
2022-08-19T17:38:42.323Z,94921.66
2022-08-19T17:41:11.649Z,94923.22
2022-08-19T17:43:43.924Z,94926.77
2022-08-19T17:46:17.646Z,94936.84
2022-08-19T17:48:47.402Z,94931.05
2022-08-19T17:51:24.602Z,94937.19
2022-08-19T17:53:57.530Z,94939.73
2022-08-19T17:56:28.101Z,94948.02
2022-08-19T17:59:01.635Z,94949.00
2022-08-19T18:01:44.029Z,94946.80
2022-08-19T18:04:06.003Z,94949.63
2022-08-19T18:06:36.693Z,94950.20
2022-08-19T18:09:10.011Z,94952.42
2022-08-19T18:11:45.229Z,94950.70
2022-08-19T18:14:15.801Z,94950.94
2022-08-19T18:16:45.182Z,94951.99
2022-08-19T18:19:17.227Z,94954.05
2022-08-19T18:21:47.272Z,94955.30
2022-08-19T18:24:16.992Z,94955.31
2022-08-19T18:26:45.740Z,94960.79
2022-08-19T18:29:15.057Z,94958.05
2022-08-19T18:31:47.788Z,94963.20
2022-08-19T18:34:17.155Z,94960.15
2022-08-19T18:36:54.158Z,94964.81
2022-08-19T18:39:35.216Z,94958.66
2022-08-19T18:42:23.784Z,94967.94
2022-08-19T18:45:12.748Z,94964.52
2022-08-19T18:48:00.378Z,94965.91
2022-08-19T18:50:29.110Z,94962.30
2022-08-19T18:53:01.863Z,94962.37
2022-08-19T18:55:30.490Z,94972.20
2022-08-19T18:57:59.246Z,94966.11
2022-08-19T19:00:27.936Z,94969.27
2022-08-19T19:02:58.131Z,94977.25
2022-08-19T19:05:32.637Z,94969.27
2022-08-19T19:08:01.724Z,94980.39
2022-08-19T19:10:31.556Z,94978.32
2022-08-19T19:13:01.550Z,94981.72
2022-08-19T19:15:30.334Z,94991.06
2022-08-19T19:17:59.884Z,94989.66
2022-08-19T19:20:36.378Z,94993.06
2022-08-19T19:23:03.532Z,94997.91
2022-08-19T19:25:50.713Z,95000.91
2022-08-19T19:28:04.189Z,95003.29
2022-08-19T19:30:36.384Z,95006.55
2022-08-19T19:33:05.581Z,95007.24
2022-08-19T19:35:36.084Z,95013.78
2022-08-19T19:38:06.492Z,95010.34
2022-08-19T19:40:35.270Z,95020.45
2022-08-19T19:43:05.670Z,95024.94
2022-08-19T19:45:34.676Z,95026.75
2022-08-19T19:48:03.383Z,95029.69
2022-08-19T19:50:32.501Z,95029.55
2022-08-19T19:53:01.208Z,95036.83
2022-08-19T19:55:29.904Z,95031.43
2022-08-19T19:57:58.574Z,95030.55
2022-08-19T20:00:30.382Z,95033.90
2022-08-19T20:02:59.019Z,95030.28
2022-08-19T20:05:27.926Z,95035.64
2022-08-19T20:08:15.230Z,95033.52
2022-08-19T20:10:45.170Z,95028.67
2022-08-19T20:13:15.916Z,95027.95
2022-08-19T20:15:47.337Z,95032.36
2022-08-19T20:18:17.399Z,95028.51
2022-08-19T20:20:48.038Z,95026.63
2022-08-19T20:23:21.769Z,95027.00
2022-08-19T20:25:52.192Z,95034.16
2022-08-19T20:28:22.944Z,95021.28
2022-08-19T20:30:52.194Z,95035.51
2022-08-19T20:33:21.090Z,95040.24
2022-08-19T20:35:51.882Z,95043.89
2022-08-19T20:38:23.959Z,95040.38
2022-08-19T20:40:54.063Z,95039.87
2022-08-19T20:43:22.820Z,95042.39
2022-08-19T20:45:51.532Z,95040.48
2022-08-19T20:51:00.815Z,95051.07
2022-08-19T20:53:29.527Z,95055.07
2022-08-19T20:55:59.731Z,95052.36
2022-08-19T20:58:29.100Z,95051.36
2022-08-19T21:01:01.155Z,95055.33
2022-08-19T21:03:42.913Z,95059.26
2022-08-19T21:06:10.409Z,95067.70
2022-08-19T21:08:42.005Z,95062.27
2022-08-19T21:13:54.508Z,95064.10
2022-08-19T21:16:36.777Z,95072.77
2022-08-19T21:19:07.417Z,95064.17
2022-08-19T21:21:36.314Z,95057.77
2022-08-19T21:24:20.592Z,95060.22
2022-08-19T21:26:52.838Z,95060.84
2022-08-19T21:29:23.558Z,95054.36
2022-08-19T21:31:53.772Z,95060.77
2022-08-19T21:34:30.236Z,95063.33
2022-08-19T21:37:00.008Z,95063.52
2022-08-19T21:39:31.804Z,95068.06
2022-08-19T21:42:05.174Z,95066.36
2022-08-19T21:44:33.999Z,95062.09
2022-08-19T21:49:17.963Z,95063.80
2022-08-19T21:49:41.501Z,95065.03
2022-08-19T21:52:12.723Z,95061.59
2022-08-19T21:54:42.455Z,95062.48
2022-08-19T21:57:17.393Z,95059.30
2022-08-19T21:59:49.544Z,95062.00
2022-08-19T22:02:25.628Z,95060.19
2022-08-19T22:04:58.977Z,95063.99
2022-08-19T22:07:32.624Z,95061.87
2022-08-19T22:10:17.070Z,95060.24
2022-08-19T22:13:13.758Z,95053.14
2022-08-19T22:15:47.949Z,95051.92
2022-08-19T22:18:34.860Z,95054.66
2022-08-19T22:21:01.196Z,95055.59
2022-08-19T22:23:31.897Z,95050.43
2022-08-19T22:26:03.895Z,95047.08
2022-08-19T22:28:34.300Z,95048.59
2022-08-19T22:31:10.157Z,95040.75
2022-08-19T22:33:42.782Z,95044.36
2022-08-19T22:36:12.015Z,95043.62
2022-08-19T22:38:42.086Z,95041.03
2022-08-19T22:41:20.880Z,95035.75
2022-08-19T22:43:52.761Z,95030.47
2022-08-19T22:46:22.003Z,95029.55
2022-08-19T22:49:00.943Z,95020.50
2022-08-19T22:51:41.056Z,95021.70
2022-08-19T22:54:09.884Z,95024.30
2022-08-19T22:56:39.740Z,95022.00
2022-08-19T22:59:08.606Z,95018.11
2022-08-19T23:01:38.946Z,95024.78
2022-08-19T23:04:07.861Z,95024.20
2022-08-19T23:06:55.776Z,95029.81
2022-08-19T23:09:30.437Z,95028.77
2022-08-19T23:12:00.932Z,95025.39
2022-08-19T23:14:36.050Z,95018.63
2022-08-19T23:17:10.045Z,95027.55
2022-08-19T23:19:39.148Z,95021.20
2022-08-19T23:22:09.503Z,95013.92
2022-08-19T23:24:41.075Z,95011.06
2022-08-19T23:27:31.046Z,95010.18
2022-08-19T23:30:19.983Z,95015.80
2022-08-19T23:32:48.854Z,95011.83
2022-08-19T23:35:17.639Z,95016.37
2022-08-19T23:37:47.050Z,95005.20
2022-08-19T23:40:21.152Z,94998.25
2022-08-19T23:42:52.003Z,94995.38
2022-08-19T23:45:23.949Z,94994.02
2022-08-19T23:47:57.649Z,94990.08
2022-08-19T23:50:27.773Z,94991.77
2022-08-19T23:52:59.047Z,94991.30
2022-08-19T23:55:30.677Z,94987.53
2022-08-19T23:58:00.050Z,94974.53
